Eastend, Virginia
Current Conditions -  °F | °C
As of 9:54 AM on Thursday 23 Oct 2014 (Local Time) from KRIC Reporting Station
Scattered Clouds Scattered Clouds  
Wind Chill: 56°   Ceiling: Unl
Heat Index: 56°   Visibility: 10mi
Dew Point: 42°   Wind: 15mph
Humidity: 60%   Direction: 310°NW
Pressure: 29.94"   Gusts: NA
Location:  37.556°N, 77.3779°W
Report Text: KRIC 231354Z 31013KT 10SM SCT070 13/06 A2994 RMK AO2 SLP141 T01330056
Loading
Personal Weather Stations






























Interactive Weather Map
Tropical Storm Tracking
New forecast layout! Learn more

10-Day Weather Forecast

Advertisements
Track Severe Weather on mobile